WON1895 WAHS-WICC
Flight info
| Callsign | WON1895 |
|---|---|
| Flight time | 0h 53m |
| Altitude | 14000 |
| Route | KIDET3B KIDET W16S CA CA1U |
| Aircraft | AT76/M-SDFGIRY/S |
Departure
| Time | 2026-05-07 12:41 |
|---|---|
| Airport | Jenderal Ahmad Yani Airport (WAHS) |
Arrival
| Time | 2026-05-07 13:35 |
|---|---|
| Airport | Husein Sastranegara International Airport (WICC) |
| Time | Latitude | Longitude | Altitude | Speed | Heading |
|---|---|---|---|---|---|
| 2026-05-07 12:18 | -6.96768 | 110.37517 | 15 ft | 0 kts | 40° |
| 2026-05-07 12:32 | -6.96775 | 110.37511 | 19 ft | 2 kts | 39° |
| 2026-05-07 12:32 | -6.96785 | 110.37503 | 16 ft | 2 kts | 40° |
| 2026-05-07 12:32 | -6.96796 | 110.37493 | 15 ft | 2 kts | 40° |
| 2026-05-07 12:33 | -6.96815 | 110.37476 | 19 ft | 2 kts | 50° |
| 2026-05-07 12:33 | -6.96819 | 110.37471 | 16 ft | 1 kts | 70° |
| 2026-05-07 12:33 | -6.96821 | 110.37465 | 16 ft | 1 kts | 101° |
| 2026-05-07 12:34 | -6.96819 | 110.37460 | 15 ft | 1 kts | 121° |
| 2026-05-07 12:34 | -6.96816 | 110.37455 | 17 ft | 1 kts | 129° |
| 2026-05-07 12:34 | -6.96813 | 110.37451 | 17 ft | 0 kts | 131° |
| 2026-05-07 12:34 | -6.96813 | 110.37452 | 17 ft | 0 kts | 131° |
| 2026-05-07 12:35 | -6.96819 | 110.37459 | 15 ft | 3 kts | 130° |
| 2026-05-07 12:35 | -6.96839 | 110.37482 | 17 ft | 5 kts | 131° |
| 2026-05-07 12:35 | -6.96868 | 110.37516 | 15 ft | 7 kts | 129° |
| 2026-05-07 12:36 | -6.96900 | 110.37555 | 15 ft | 8 kts | 129° |
| 2026-05-07 12:36 | -6.96939 | 110.37551 | 15 ft | 4 kts | 218° |
| 2026-05-07 12:36 | -6.96966 | 110.37530 | 14 ft | 6 kts | 218° |
| 2026-05-07 12:36 | -6.97018 | 110.37484 | 12 ft | 13 kts | 221° |
| 2026-05-07 12:37 | -6.97092 | 110.37422 | 1 ft | 16 kts | 220° |
| 2026-05-07 12:37 | -6.97143 | 110.37419 | 0 ft | 7 kts | 132° |
| 2026-05-07 12:37 | -6.97185 | 110.37469 | 0 ft | 12 kts | 130° |
| 2026-05-07 12:37 | -6.97252 | 110.37548 | 1 ft | 17 kts | 131° |
| 2026-05-07 12:38 | -6.97339 | 110.37650 | 1 ft | 21 kts | 131° |
| 2026-05-07 12:38 | -6.97440 | 110.37770 | 3 ft | 23 kts | 130° |
| 2026-05-07 12:38 | -6.97550 | 110.37900 | 3 ft | 26 kts | 130° |
| 2026-05-07 12:38 | -6.97654 | 110.38024 | 3 ft | 20 kts | 130° |
| 2026-05-07 12:39 | -6.97690 | 110.38108 | 3 ft | 8 kts | 143° |
| 2026-05-07 12:39 | -6.97712 | 110.38090 | 3 ft | 2 kts | 281° |
| 2026-05-07 12:39 | -6.97695 | 110.38071 | 3 ft | 0 kts | 310° |
| 2026-05-07 12:40 | -6.97662 | 110.38031 | 3 ft | 30 kts | 307° |
| 2026-05-07 12:41 | -6.97396 | 110.37719 | 2 ft | 87 kts | 311° |
| 2026-05-07 12:41 | -6.96897 | 110.37128 | 4 ft | 131 kts | 308° |
| 2026-05-07 12:41 | -6.96291 | 110.36408 | 396 ft | 136 kts | 309° |
| 2026-05-07 12:41 | -6.95677 | 110.35664 | 833 ft | 139 kts | 308° |
| 2026-05-07 12:42 | -6.95023 | 110.34870 | 908 ft | 156 kts | 308° |
| 2026-05-07 12:42 | -6.94307 | 110.34000 | 1033 ft | 168 kts | 308° |
| 2026-05-07 12:42 | -6.93527 | 110.33037 | 1123 ft | 182 kts | 307° |
| 2026-05-07 12:42 | -6.92743 | 110.32031 | 1389 ft | 184 kts | 309° |
| 2026-05-07 12:43 | -6.91937 | 110.31022 | 1678 ft | 185 kts | 309° |
| 2026-05-07 12:43 | -6.91148 | 110.29997 | 1996 ft | 186 kts | 300° |
| 2026-05-07 12:43 | -6.90601 | 110.28817 | 2332 ft | 187 kts | 293° |
| 2026-05-07 12:43 | -6.90094 | 110.27606 | 2643 ft | 189 kts | 292° |
| 2026-05-07 12:44 | -6.89584 | 110.26400 | 2976 ft | 190 kts | 294° |
| 2026-05-07 12:44 | -6.89018 | 110.25192 | 3340 ft | 191 kts | 295° |
| 2026-05-07 12:44 | -6.88424 | 110.23989 | 3684 ft | 192 kts | 297° |
| 2026-05-07 12:44 | -6.87698 | 110.22847 | 4019 ft | 195 kts | 306° |
| 2026-05-07 12:45 | -6.86926 | 110.21723 | 4388 ft | 196 kts | 302° |
| 2026-05-07 12:45 | -6.86205 | 110.20558 | 4733 ft | 197 kts | 302° |
| 2026-05-07 12:45 | -6.85453 | 110.19404 | 5081 ft | 197 kts | 304° |
| 2026-05-07 12:45 | -6.84700 | 110.18247 | 5433 ft | 198 kts | 303° |
| 2026-05-07 12:46 | -6.83952 | 110.17081 | 5769 ft | 198 kts | 303° |
| 2026-05-07 12:46 | -6.83196 | 110.15915 | 6101 ft | 199 kts | 303° |
| 2026-05-07 12:46 | -6.82443 | 110.14745 | 6428 ft | 199 kts | 303° |
| 2026-05-07 12:46 | -6.81686 | 110.13574 | 6750 ft | 200 kts | 304° |
| 2026-05-07 12:47 | -6.80924 | 110.12398 | 7074 ft | 201 kts | 304° |
| 2026-05-07 12:47 | -6.80174 | 110.11232 | 7381 ft | 201 kts | 304° |
| 2026-05-07 12:47 | -6.79409 | 110.10054 | 7710 ft | 201 kts | 304° |
| 2026-05-07 12:47 | -6.78646 | 110.08869 | 8033 ft | 202 kts | 304° |
| 2026-05-07 12:48 | -6.77880 | 110.07684 | 8373 ft | 202 kts | 305° |
| 2026-05-07 12:48 | -6.77114 | 110.06502 | 8686 ft | 202 kts | 305° |
| 2026-05-07 12:48 | -6.76347 | 110.05313 | 9008 ft | 203 kts | 305° |
| 2026-05-07 12:48 | -6.75579 | 110.04124 | 9324 ft | 203 kts | 305° |
| 2026-05-07 12:49 | -6.74805 | 110.02929 | 9646 ft | 204 kts | 306° |
| 2026-05-07 12:49 | -6.74033 | 110.01730 | 9945 ft | 205 kts | 306° |
| 2026-05-07 12:49 | -6.73250 | 110.00527 | 10216 ft | 206 kts | 305° |
| 2026-05-07 12:49 | -6.72470 | 109.99314 | 10486 ft | 207 kts | 305° |
| 2026-05-07 12:50 | -6.71682 | 109.98096 | 10749 ft | 208 kts | 305° |
| 2026-05-07 12:50 | -6.70891 | 109.96872 | 11016 ft | 210 kts | 305° |
| 2026-05-07 12:50 | -6.70092 | 109.95640 | 11236 ft | 211 kts | 305° |
| 2026-05-07 12:50 | -6.69289 | 109.94396 | 11438 ft | 212 kts | 305° |
| 2026-05-07 12:51 | -6.68485 | 109.93146 | 11643 ft | 213 kts | 305° |
| 2026-05-07 12:51 | -6.67685 | 109.91911 | 11838 ft | 214 kts | 305° |
| 2026-05-07 12:51 | -6.66870 | 109.90653 | 12050 ft | 215 kts | 304° |
| 2026-05-07 12:51 | -6.66053 | 109.89386 | 12246 ft | 216 kts | 304° |
| 2026-05-07 12:52 | -6.65227 | 109.88115 | 12444 ft | 218 kts | 304° |
| 2026-05-07 12:52 | -6.64402 | 109.86832 | 12633 ft | 219 kts | 304° |
| 2026-05-07 12:52 | -6.63571 | 109.85549 | 12827 ft | 220 kts | 304° |
| 2026-05-07 12:52 | -6.62736 | 109.84262 | 13020 ft | 220 kts | 304° |
| 2026-05-07 12:53 | -6.61902 | 109.82964 | 13201 ft | 221 kts | 304° |
| 2026-05-07 12:53 | -6.61059 | 109.81668 | 13384 ft | 222 kts | 304° |
| 2026-05-07 12:53 | -6.60218 | 109.80362 | 13561 ft | 223 kts | 303° |
| 2026-05-07 12:53 | -6.59370 | 109.79051 | 13713 ft | 224 kts | 303° |
| 2026-05-07 12:54 | -6.58507 | 109.77721 | 13766 ft | 230 kts | 303° |
| 2026-05-07 12:54 | -6.57622 | 109.76352 | 13808 ft | 236 kts | 303° |
| 2026-05-07 12:54 | -6.56729 | 109.74967 | 13826 ft | 242 kts | 303° |
| 2026-05-07 12:54 | -6.55800 | 109.73534 | 13836 ft | 247 kts | 303° |
| 2026-05-07 12:55 | -6.55005 | 109.71996 | 13838 ft | 251 kts | 282° |
| 2026-05-07 12:55 | -6.54959 | 109.70251 | 13843 ft | 251 kts | 265° |
| 2026-05-07 12:55 | -6.55134 | 109.68486 | 13842 ft | 255 kts | 262° |
| 2026-05-07 12:55 | -6.55356 | 109.66705 | 13841 ft | 258 kts | 262° |
| 2026-05-07 12:56 | -6.55601 | 109.64912 | 13844 ft | 260 kts | 261° |
| 2026-05-07 12:56 | -6.55858 | 109.63113 | 13844 ft | 261 kts | 261° |
| 2026-05-07 12:56 | -6.56119 | 109.61304 | 13843 ft | 262 kts | 261° |
| 2026-05-07 12:56 | -6.56365 | 109.59487 | 13842 ft | 263 kts | 262° |
| 2026-05-07 12:57 | -6.56604 | 109.57662 | 13844 ft | 263 kts | 262° |
| 2026-05-07 12:57 | -6.56843 | 109.55833 | 13844 ft | 264 kts | 262° |
| 2026-05-07 12:57 | -6.57080 | 109.54000 | 13844 ft | 264 kts | 262° |
| 2026-05-07 12:57 | -6.57320 | 109.52170 | 13845 ft | 265 kts | 262° |
| 2026-05-07 12:58 | -6.57562 | 109.50333 | 13849 ft | 265 kts | 262° |
| 2026-05-07 12:58 | -6.57801 | 109.48495 | 13848 ft | 265 kts | 262° |
| 2026-05-07 12:58 | -6.58044 | 109.46653 | 13848 ft | 265 kts | 262° |
| 2026-05-07 12:58 | -6.58282 | 109.44815 | 13846 ft | 265 kts | 262° |
| 2026-05-07 12:59 | -6.58519 | 109.43000 | 13852 ft | 265 kts | 262° |
| 2026-05-07 12:59 | -6.58762 | 109.41157 | 13851 ft | 265 kts | 262° |
| 2026-05-07 12:59 | -6.59002 | 109.39314 | 13852 ft | 266 kts | 262° |
| 2026-05-07 12:59 | -6.59244 | 109.37474 | 13855 ft | 265 kts | 262° |
| 2026-05-07 13:00 | -6.59484 | 109.35633 | 13852 ft | 265 kts | 262° |
| 2026-05-07 13:00 | -6.59725 | 109.33789 | 13856 ft | 265 kts | 262° |
| 2026-05-07 13:00 | -6.59966 | 109.31945 | 13857 ft | 265 kts | 262° |
| 2026-05-07 13:00 | -6.60206 | 109.30104 | 13856 ft | 265 kts | 262° |
| 2026-05-07 13:01 | -6.60444 | 109.28289 | 13858 ft | 265 kts | 262° |
| 2026-05-07 13:01 | -6.60684 | 109.26447 | 13860 ft | 265 kts | 262° |
| 2026-05-07 13:01 | -6.60924 | 109.24609 | 13862 ft | 265 kts | 262° |
| 2026-05-07 13:01 | -6.61164 | 109.22767 | 13862 ft | 265 kts | 262° |
| 2026-05-07 13:02 | -6.61404 | 109.20926 | 13857 ft | 265 kts | 262° |
| 2026-05-07 13:02 | -6.61645 | 109.19082 | 13857 ft | 265 kts | 262° |
| 2026-05-07 13:02 | -6.61885 | 109.17244 | 13859 ft | 265 kts | 262° |
| 2026-05-07 13:02 | -6.62124 | 109.15404 | 13862 ft | 265 kts | 262° |
| 2026-05-07 13:03 | -6.62364 | 109.13563 | 13860 ft | 265 kts | 262° |
| 2026-05-07 13:03 | -6.62605 | 109.11719 | 13863 ft | 265 kts | 262° |
| 2026-05-07 13:03 | -6.62840 | 109.09900 | 13862 ft | 265 kts | 262° |
| 2026-05-07 13:03 | -6.63083 | 109.08036 | 13862 ft | 265 kts | 262° |
| 2026-05-07 13:04 | -6.63319 | 109.06220 | 13862 ft | 265 kts | 262° |
| 2026-05-07 13:04 | -6.63559 | 109.04374 | 13862 ft | 266 kts | 262° |
| 2026-05-07 13:04 | -6.63800 | 109.02532 | 13862 ft | 266 kts | 262° |
| 2026-05-07 13:04 | -6.64039 | 109.00686 | 13863 ft | 266 kts | 262° |
| 2026-05-07 13:05 | -6.64279 | 108.98843 | 13863 ft | 266 kts | 262° |
| 2026-05-07 13:05 | -6.64519 | 108.96999 | 13866 ft | 266 kts | 262° |
| 2026-05-07 13:05 | -6.64758 | 108.95154 | 13866 ft | 266 kts | 262° |
| 2026-05-07 13:05 | -6.64998 | 108.93315 | 13865 ft | 266 kts | 262° |
| 2026-05-07 13:06 | -6.65236 | 108.91469 | 13867 ft | 266 kts | 262° |
| 2026-05-07 13:06 | -6.65475 | 108.89623 | 13871 ft | 266 kts | 262° |
| 2026-05-07 13:06 | -6.65715 | 108.87780 | 13866 ft | 266 kts | 262° |
| 2026-05-07 13:06 | -6.65952 | 108.85958 | 13870 ft | 266 kts | 262° |
| 2026-05-07 13:07 | -6.66192 | 108.84109 | 13866 ft | 266 kts | 262° |
| 2026-05-07 13:07 | -6.66431 | 108.82260 | 13874 ft | 266 kts | 262° |
| 2026-05-07 13:07 | -6.66671 | 108.80413 | 13869 ft | 266 kts | 262° |
| 2026-05-07 13:07 | -6.66910 | 108.78566 | 13871 ft | 266 kts | 262° |
| 2026-05-07 13:08 | -6.67150 | 108.76714 | 13871 ft | 266 kts | 262° |
| 2026-05-07 13:08 | -6.67388 | 108.74865 | 13870 ft | 266 kts | 262° |
| 2026-05-07 13:08 | -6.67629 | 108.73017 | 13873 ft | 266 kts | 262° |
| 2026-05-07 13:08 | -6.67868 | 108.71168 | 13874 ft | 266 kts | 262° |
| 2026-05-07 13:09 | -6.68105 | 108.69318 | 13874 ft | 266 kts | 262° |
| 2026-05-07 13:09 | -6.68346 | 108.67464 | 13875 ft | 267 kts | 262° |
| 2026-05-07 13:09 | -6.68585 | 108.65616 | 13872 ft | 267 kts | 262° |
| 2026-05-07 13:09 | -6.68821 | 108.63790 | 13871 ft | 267 kts | 262° |
| 2026-05-07 13:10 | -6.69060 | 108.61938 | 13879 ft | 267 kts | 262° |
| 2026-05-07 13:10 | -6.69299 | 108.60089 | 13878 ft | 267 kts | 262° |
| 2026-05-07 13:10 | -6.69541 | 108.58237 | 13875 ft | 267 kts | 262° |
| 2026-05-07 13:10 | -6.69787 | 108.56383 | 13878 ft | 267 kts | 261° |
| 2026-05-07 13:11 | -6.70054 | 108.54532 | 13885 ft | 267 kts | 261° |
| 2026-05-07 13:11 | -6.70354 | 108.52684 | 13881 ft | 268 kts | 259° |
| 2026-05-07 13:11 | -6.70681 | 108.50839 | 13882 ft | 268 kts | 259° |
| 2026-05-07 13:11 | -6.71007 | 108.48992 | 13883 ft | 268 kts | 259° |
| 2026-05-07 13:12 | -6.71336 | 108.47143 | 13882 ft | 269 kts | 259° |
| 2026-05-07 13:12 | -6.71663 | 108.45296 | 13882 ft | 269 kts | 259° |
| 2026-05-07 13:12 | -6.71990 | 108.43442 | 13883 ft | 269 kts | 259° |
| 2026-05-07 13:12 | -6.72320 | 108.41587 | 13879 ft | 269 kts | 259° |
| 2026-05-07 13:13 | -6.72643 | 108.39754 | 13884 ft | 269 kts | 259° |
| 2026-05-07 13:13 | -6.72970 | 108.37896 | 13885 ft | 269 kts | 259° |
| 2026-05-07 13:13 | -6.73297 | 108.36041 | 13883 ft | 269 kts | 259° |
| 2026-05-07 13:13 | -6.73624 | 108.34183 | 13890 ft | 269 kts | 259° |
| 2026-05-07 13:14 | -6.73951 | 108.32327 | 13889 ft | 269 kts | 259° |
| 2026-05-07 13:14 | -6.74279 | 108.30470 | 13886 ft | 269 kts | 259° |
| 2026-05-07 13:14 | -6.74605 | 108.28619 | 13893 ft | 269 kts | 259° |
| 2026-05-07 13:14 | -6.74931 | 108.26763 | 13892 ft | 269 kts | 259° |
| 2026-05-07 13:15 | -6.75257 | 108.24914 | 13896 ft | 269 kts | 259° |
| 2026-05-07 13:15 | -6.75583 | 108.23061 | 13902 ft | 269 kts | 259° |
| 2026-05-07 13:15 | -6.75914 | 108.21206 | 13897 ft | 269 kts | 259° |
| 2026-05-07 13:15 | -6.76235 | 108.19371 | 13896 ft | 270 kts | 259° |
| 2026-05-07 13:16 | -6.76562 | 108.17513 | 13898 ft | 269 kts | 259° |
| 2026-05-07 13:16 | -6.76888 | 108.15656 | 13900 ft | 270 kts | 259° |
| 2026-05-07 13:16 | -6.77215 | 108.13794 | 13897 ft | 270 kts | 259° |
| 2026-05-07 13:16 | -6.77542 | 108.11935 | 13902 ft | 269 kts | 259° |
| 2026-05-07 13:17 | -6.77870 | 108.10075 | 13908 ft | 270 kts | 259° |
| 2026-05-07 13:17 | -6.78086 | 108.08844 | 13904 ft | 270 kts | 259° |
| 2026-05-07 13:17 | -6.78523 | 108.06358 | 13903 ft | 269 kts | 259° |
| 2026-05-07 13:17 | -6.78740 | 108.05127 | 13905 ft | 269 kts | 259° |
| 2026-05-07 13:18 | -6.79066 | 108.03274 | 13917 ft | 270 kts | 259° |
| 2026-05-07 13:18 | -6.79395 | 108.01412 | 13914 ft | 270 kts | 259° |
| 2026-05-07 13:18 | -6.79722 | 107.99548 | 13910 ft | 271 kts | 259° |
| 2026-05-07 13:18 | -6.80051 | 107.97681 | 13915 ft | 271 kts | 259° |
| 2026-05-07 13:19 | -6.80378 | 107.95810 | 13913 ft | 271 kts | 259° |
| 2026-05-07 13:19 | -6.80706 | 107.93944 | 13917 ft | 271 kts | 259° |
| 2026-05-07 13:19 | -6.81032 | 107.92076 | 13920 ft | 271 kts | 259° |
| 2026-05-07 13:19 | -6.81363 | 107.90205 | 13924 ft | 271 kts | 259° |
| 2026-05-07 13:20 | -6.81689 | 107.88340 | 13912 ft | 271 kts | 259° |
| 2026-05-07 13:20 | -6.82012 | 107.86498 | 13932 ft | 271 kts | 259° |
| 2026-05-07 13:20 | -6.82342 | 107.84631 | 13919 ft | 271 kts | 259° |
| 2026-05-07 13:20 | -6.82670 | 107.82761 | 13927 ft | 272 kts | 259° |
| 2026-05-07 13:21 | -6.82995 | 107.80890 | 13922 ft | 272 kts | 259° |
| 2026-05-07 13:21 | -6.83325 | 107.79019 | 13944 ft | 271 kts | 259° |
| 2026-05-07 13:21 | -6.83651 | 107.77149 | 13933 ft | 271 kts | 259° |
| 2026-05-07 13:21 | -6.83979 | 107.75281 | 13934 ft | 271 kts | 259° |
| 2026-05-07 13:22 | -6.84307 | 107.73411 | 13936 ft | 271 kts | 259° |
| 2026-05-07 13:22 | -6.84634 | 107.71543 | 13933 ft | 271 kts | 259° |
| 2026-05-07 13:22 | -6.84960 | 107.69681 | 13928 ft | 270 kts | 259° |
| 2026-05-07 13:22 | -6.85285 | 107.67822 | 13940 ft | 270 kts | 259° |
| 2026-05-07 13:23 | -6.85611 | 107.65964 | 13931 ft | 270 kts | 259° |
| 2026-05-07 13:23 | -6.85944 | 107.64061 | 13658 ft | 281 kts | 259° |
| 2026-05-07 13:23 | -6.86285 | 107.62093 | 13302 ft | 288 kts | 259° |
| 2026-05-07 13:23 | -6.86635 | 107.60093 | 12924 ft | 291 kts | 259° |
| 2026-05-07 13:24 | -6.86987 | 107.58083 | 12544 ft | 291 kts | 259° |
| 2026-05-07 13:24 | -6.87337 | 107.56077 | 12181 ft | 291 kts | 259° |
| 2026-05-07 13:24 | -6.87687 | 107.54069 | 11817 ft | 291 kts | 259° |
| 2026-05-07 13:24 | -6.88355 | 107.52206 | 11465 ft | 287 kts | 234° |
| 2026-05-07 13:25 | -6.89826 | 107.50902 | 11114 ft | 275 kts | 205° |
| 2026-05-07 13:25 | -6.91584 | 107.50547 | 10766 ft | 249 kts | 173° |
| 2026-05-07 13:25 | -6.93103 | 107.51158 | 10421 ft | 229 kts | 137° |
| 2026-05-07 13:25 | -6.93933 | 107.52425 | 10160 ft | 207 kts | 112° |
| 2026-05-07 13:26 | -6.94619 | 107.53692 | 9906 ft | 209 kts | 121° |
| 2026-05-07 13:26 | -6.95416 | 107.54941 | 9616 ft | 216 kts | 122° |
| 2026-05-07 13:26 | -6.96231 | 107.56210 | 9314 ft | 212 kts | 122° |
| 2026-05-07 13:26 | -6.96998 | 107.57448 | 9047 ft | 208 kts | 120° |
| 2026-05-07 13:27 | -6.97746 | 107.58702 | 8766 ft | 209 kts | 120° |
| 2026-05-07 13:27 | -6.98470 | 107.59920 | 8493 ft | 197 kts | 118° |
| 2026-05-07 13:27 | -6.99036 | 107.61129 | 8234 ft | 193 kts | 112° |
| 2026-05-07 13:27 | -6.99546 | 107.62399 | 7965 ft | 198 kts | 111° |
| 2026-05-07 13:28 | -7.00064 | 107.63703 | 7724 ft | 203 kts | 111° |
| 2026-05-07 13:28 | -7.00609 | 107.65030 | 7452 ft | 207 kts | 113° |
| 2026-05-07 13:28 | -7.01191 | 107.66373 | 7178 ft | 211 kts | 114° |
| 2026-05-07 13:28 | -7.01788 | 107.67737 | 6900 ft | 214 kts | 114° |
| 2026-05-07 13:29 | -7.02242 | 107.69145 | 6622 ft | 204 kts | 95° |
| 2026-05-07 13:29 | -7.02277 | 107.70524 | 6350 ft | 192 kts | 90° |
| 2026-05-07 13:29 | -7.02149 | 107.71817 | 6044 ft | 182 kts | 67° |
| 2026-05-07 13:29 | -7.01273 | 107.72688 | 5789 ft | 181 kts | 25° |
| 2026-05-07 13:30 | -7.00073 | 107.73123 | 5541 ft | 186 kts | 17° |
| 2026-05-07 13:30 | -6.98776 | 107.73402 | 5228 ft | 193 kts | 8° |
| 2026-05-07 13:30 | -6.97452 | 107.73511 | 4905 ft | 189 kts | 2° |
| 2026-05-07 13:30 | -6.96233 | 107.73301 | 4734 ft | 177 kts | 328° |
| 2026-05-07 13:31 | -6.95419 | 107.72416 | 4596 ft | 169 kts | 303° |
| 2026-05-07 13:31 | -6.94848 | 107.71422 | 4459 ft | 160 kts | 295° |
| 2026-05-07 13:31 | -6.94405 | 107.70413 | 4321 ft | 154 kts | 291° |
| 2026-05-07 13:31 | -6.94058 | 107.69459 | 4181 ft | 136 kts | 289° |
| 2026-05-07 13:32 | -6.93764 | 107.68591 | 4092 ft | 129 kts | 288° |
| 2026-05-07 13:32 | -6.93484 | 107.67737 | 4003 ft | 126 kts | 288° |
| 2026-05-07 13:32 | -6.93220 | 107.66905 | 4010 ft | 125 kts | 287° |
| 2026-05-07 13:32 | -6.92953 | 107.66063 | 4021 ft | 128 kts | 287° |
| 2026-05-07 13:33 | -6.92660 | 107.65172 | 3837 ft | 138 kts | 288° |
| 2026-05-07 13:33 | -6.92353 | 107.64268 | 3638 ft | 134 kts | 289° |
| 2026-05-07 13:33 | -6.92049 | 107.63412 | 3526 ft | 126 kts | 290° |
| 2026-05-07 13:33 | -6.91748 | 107.62591 | 3401 ft | 124 kts | 287° |
| 2026-05-07 13:34 | -6.91477 | 107.61758 | 3240 ft | 125 kts | 288° |
| 2026-05-07 13:34 | -6.90914 | 107.60125 | 2859 ft | 123 kts | 286° |
| 2026-05-07 13:34 | -6.90643 | 107.59320 | 2645 ft | 120 kts | 288° |
| 2026-05-07 13:35 | -6.90372 | 107.58522 | 2465 ft | 121 kts | 289° |
| 2026-05-07 13:35 | -6.90111 | 107.57759 | 2425 ft | 98 kts | 289° |
| 2026-05-07 13:35 | -6.89990 | 107.57405 | 2417 ft | 29 kts | 289° |
| 2026-05-07 13:35 | -6.89949 | 107.57326 | 2417 ft | 7 kts | 267° |
| 2026-05-07 13:36 | -6.89958 | 107.57321 | 2417 ft | 0 kts | 173° |
| 2026-05-07 13:36 | -6.89975 | 107.57360 | 2416 ft | 12 kts | 109° |
| 2026-05-07 13:36 | -6.90000 | 107.57436 | 2419 ft | 11 kts | 108° |
| 2026-05-07 13:36 | -6.90023 | 107.57504 | 2421 ft | 10 kts | 109° |
| 2026-05-07 13:37 | -6.90044 | 107.57565 | 2429 ft | 9 kts | 109° |
| 2026-05-07 13:37 | -6.90065 | 107.57625 | 2428 ft | 9 kts | 109° |
| 2026-05-07 13:37 | -6.90087 | 107.57688 | 2427 ft | 10 kts | 110° |
| 2026-05-07 13:37 | -6.90137 | 107.57706 | 2420 ft | 9 kts | 201° |
| 2026-05-07 13:38 | -6.90198 | 107.57683 | 2418 ft | 9 kts | 200° |
| 2026-05-07 13:38 | -6.90243 | 107.57683 | 2422 ft | 3 kts | 127° |
| 2026-05-07 13:38 | -6.90249 | 107.57713 | 2422 ft | 5 kts | 98° |
| 2026-05-07 13:38 | -6.90255 | 107.57757 | 2420 ft | 7 kts | 98° |
| 2026-05-07 13:39 | -6.90262 | 107.57812 | 2422 ft | 8 kts | 98° |
| 2026-05-07 13:39 | -6.90271 | 107.57872 | 2421 ft | 9 kts | 99° |
| 2026-05-07 13:39 | -6.90278 | 107.57920 | 2428 ft | 1 kts | 103° |
| 2026-05-07 13:39 | -6.90280 | 107.57921 | 2431 ft | 0 kts | 129° |
| 2026-05-07 13:40 | -6.90281 | 107.57921 | 2430 ft | 0 kts | 144° |
| 2026-05-07 13:40 | -6.90283 | 107.57921 | 2430 ft | 1 kts | 169° |
| 2026-05-07 13:40 | -6.90288 | 107.57919 | 2429 ft | 2 kts | 191° |
| 2026-05-07 13:40 | -6.90294 | 107.57918 | 2427 ft | 0 kts | 191° |